createdAt,value
2022-08-25T03:46:47.033Z,96.06
2022-08-25T03:49:49.944Z,96.06
2022-08-25T03:52:55.127Z,97.83
2022-08-25T03:55:57.723Z,98.23
2022-08-25T03:59:00.197Z,97.34
2022-08-25T04:02:02.839Z,96.46
2022-08-25T04:05:06.210Z,96.13
2022-08-25T04:08:09.137Z,95.60
2022-08-25T04:11:15.954Z,94.92
2022-08-25T04:14:19.001Z,95.14
2022-08-25T04:17:21.889Z,94.92
2022-08-25T04:20:24.357Z,95.23
2022-08-25T04:23:26.991Z,94.57
2022-08-25T04:26:32.572Z,94.47
2022-08-25T04:29:35.244Z,95.05
2022-08-25T04:32:37.673Z,95.48
2022-08-25T04:35:41.202Z,94.57
2022-08-25T04:38:45.219Z,95.32
2022-08-25T04:41:50.525Z,94.84
2022-08-25T04:44:54.542Z,93.78
2022-08-25T04:48:00.962Z,93.78
2022-08-25T04:51:08.778Z,93.43
2022-08-25T04:54:13.970Z,93.07
2022-08-25T04:57:16.347Z,92.97
2022-08-25T05:00:19.157Z,93.04
2022-08-25T05:03:21.637Z,92.18
2022-08-25T05:06:24.432Z,91.90
2022-08-25T05:09:27.007Z,91.64
2022-08-25T05:12:31.159Z,91.83
2022-08-25T05:15:50.906Z,91.84
2022-08-25T05:18:55.425Z,90.96
2022-08-25T05:21:58.327Z,91.28
2022-08-25T05:25:01.505Z,90.88
2022-08-25T05:28:04.590Z,90.58
2022-08-25T05:31:08.856Z,89.83
2022-08-25T05:34:12.153Z,89.47
2022-08-25T05:37:14.754Z,88.67
2022-08-25T05:40:17.134Z,88.02
2022-08-25T05:43:19.942Z,87.12
2022-08-25T05:46:22.894Z,85.76
2022-08-25T05:49:25.577Z,84.32
2022-08-25T05:52:28.453Z,82.64
2022-08-25T05:55:34.658Z,82.61
2022-08-25T05:58:37.606Z,82.33
2022-08-25T06:01:59.283Z,82.61
2022-08-25T06:05:02.165Z,84.09
2022-08-25T06:08:05.163Z,82.56
2022-08-25T06:11:07.898Z,79.87
2022-08-25T06:14:11.000Z,77.25
2022-08-25T06:17:13.682Z,76.48
2022-08-25T06:20:25.440Z,79.27
2022-08-25T06:23:28.631Z,75.10
2022-08-25T06:26:31.269Z,74.30
2022-08-25T06:29:34.197Z,73.03
2022-08-25T06:32:39.898Z,70.43
2022-08-25T06:35:43.774Z,70.57
2022-08-25T06:38:47.607Z,70.24
2022-08-25T06:41:54.597Z,68.59
2022-08-25T06:44:56.937Z,69.96
2022-08-25T06:47:59.675Z,68.41
2022-08-25T06:51:09.153Z,68.30
2022-08-25T06:54:16.767Z,67.46
2022-08-25T06:57:19.250Z,66.77
2022-08-25T07:00:22.902Z,66.54
2022-08-25T07:03:32.966Z,65.58
2022-08-25T07:06:35.957Z,63.97
2022-08-25T07:09:39.276Z,64.23
2022-08-25T07:12:41.977Z,63.17
2022-08-25T07:15:45.021Z,63.52
2022-08-25T07:18:48.293Z,62.79
2022-08-25T07:21:52.931Z,60.99
2022-08-25T07:24:56.069Z,61.03
2022-08-25T07:27:59.104Z,63.21
2022-08-25T07:31:01.852Z,61.70
2022-08-25T07:34:23.750Z,62.71
2022-08-25T07:37:48.038Z,61.42
2022-08-25T07:40:54.855Z,61.61
2022-08-25T07:43:59.919Z,60.18
2022-08-25T07:47:02.462Z,60.06
2022-08-25T07:50:08.332Z,59.22
2022-08-25T07:53:13.127Z,57.67
2022-08-25T07:56:18.852Z,56.93
2022-08-25T07:59:21.534Z,56.84
2022-08-25T08:02:24.902Z,57.37
2022-08-25T08:05:28.359Z,55.73
2022-08-25T08:08:30.810Z,54.65
2022-08-25T08:11:43.784Z,55.73
2022-08-25T08:14:48.409Z,53.69
2022-08-25T08:17:51.176Z,53.42
2022-08-25T08:20:54.576Z,53.11
2022-08-25T08:23:59.005Z,53.55
2022-08-25T08:27:02.737Z,51.97
2022-08-25T08:30:06.568Z,51.69
2022-08-25T08:33:11.159Z,51.55
2022-08-25T08:36:15.050Z,49.98
2022-08-25T08:39:18.196Z,49.55
2022-08-25T08:42:47.060Z,50.30
2022-08-25T08:45:53.835Z,49.68
2022-08-25T08:49:06.205Z,49.20
2022-08-25T08:52:10.090Z,50.71
2022-08-25T08:55:30.419Z,50.82
2022-08-25T08:58:44.174Z,49.50
2022-08-25T09:01:57.387Z,48.27
2022-08-25T09:05:08.086Z,48.12
2022-08-25T09:08:13.408Z,48.40
2022-08-25T09:11:27.871Z,47.81
2022-08-25T09:14:43.568Z,48.24
2022-08-25T10:56:26.377Z,40.58
2022-08-25T10:59:57.440Z,39.88
2022-08-25T11:03:38.805Z,40.64
2022-08-25T11:06:54.598Z,39.71
2022-08-25T11:10:09.939Z,41.25
2022-08-25T11:13:22.754Z,39.81
2022-08-25T11:16:37.126Z,40.16
2022-08-25T11:19:48.273Z,40.66
2022-08-25T11:22:59.917Z,40.08
2022-08-25T11:26:11.639Z,39.13
2022-08-25T11:29:21.098Z,39.82
2022-08-25T11:32:24.763Z,39.87
2022-08-25T11:35:33.038Z,40.67
2022-08-25T11:39:04.152Z,39.87
2022-08-25T11:42:38.126Z,38.93
2022-08-25T11:45:40.856Z,38.03
2022-08-25T11:49:06.037Z,38.73
2022-08-25T11:52:31.399Z,38.93
2022-08-25T11:55:36.721Z,38.89
2022-08-25T11:58:51.811Z,38.81
2022-08-25T12:01:54.325Z,37.70
2022-08-25T12:04:58.002Z,37.77
2022-08-25T12:08:24.774Z,38.15
2022-08-25T12:11:49.561Z,38.00
2022-08-25T12:14:51.966Z,37.65
2022-08-25T12:18:15.687Z,35.90
2022-08-25T12:21:30.870Z,37.14
2022-08-25T12:24:48.140Z,34.85
2022-08-25T12:28:35.077Z,35.93
2022-08-25T12:32:06.942Z,36.43
2022-08-25T12:35:26.802Z,36.40
2022-08-25T12:38:45.445Z,35.50
2022-08-25T12:41:59.957Z,35.68
2022-08-25T12:45:58.402Z,36.28
2022-08-25T12:49:29.940Z,37.40
2022-08-25T12:52:33.023Z,37.92
2022-08-25T12:55:39.773Z,36.93
2022-08-25T12:59:12.529Z,37.08
2022-08-25T13:02:49.699Z,37.71
2022-08-25T13:06:09.838Z,36.51
2022-08-25T13:09:36.310Z,36.17
2022-08-25T13:12:49.697Z,37.20
2022-08-25T13:16:17.349Z,38.00
2022-08-25T13:19:22.459Z,37.78
2022-08-25T13:22:26.466Z,37.11
2022-08-25T13:25:33.212Z,36.67
2022-08-25T13:28:40.730Z,36.90
2022-08-25T13:32:14.481Z,36.16
2022-08-25T13:35:32.548Z,36.25
2022-08-25T13:38:35.720Z,36.57
2022-08-25T13:41:45.346Z,36.81
2022-08-25T13:44:52.401Z,36.89
2022-08-25T13:47:57.094Z,37.22
2022-08-25T13:51:19.305Z,38.42
2022-08-25T13:54:28.435Z,38.06
2022-08-25T13:57:31.543Z,40.55
2022-08-25T14:00:43.416Z,42.14
2022-08-25T14:03:47.798Z,40.21
2022-08-25T14:07:34.421Z,39.79
2022-08-25T14:10:39.862Z,39.73
2022-08-25T14:13:45.533Z,39.72
2022-08-25T14:16:58.461Z,40.55
2022-08-25T14:20:01.410Z,39.62
2022-08-25T14:23:10.059Z,40.67
2022-08-25T14:26:12.620Z,40.40
2022-08-25T14:29:16.797Z,38.86
2022-08-25T14:32:19.312Z,39.69
2022-08-25T14:35:22.071Z,38.73
2022-08-25T14:38:26.282Z,39.56
2022-08-25T14:41:29.557Z,40.38
2022-08-25T14:44:32.806Z,38.72
2022-08-25T14:47:35.970Z,40.09
2022-08-25T14:50:41.035Z,40.45
2022-08-25T14:53:44.728Z,40.60
2022-08-25T14:56:48.470Z,40.07
2022-08-25T14:59:51.800Z,41.49
2022-08-25T15:02:54.812Z,40.66
2022-08-25T15:05:57.599Z,40.49
2022-08-25T15:09:11.081Z,42.55
2022-08-25T15:12:17.778Z,41.52
2022-08-25T15:15:29.242Z,41.75
2022-08-25T15:18:31.931Z,41.04
2022-08-25T15:21:36.551Z,41.11
2022-08-25T15:24:39.319Z,40.39
2022-08-25T15:27:41.997Z,40.11
